Time;durP1;ratioP1;P1;durP2;ratioP2;P2;SDS_P1;SDS_P2;PMS_P1;PMS_P2;Temp;Humidity;BMP_temperature;BMP_pressure;BME280_temperature;BME280_humidity;BME280_pressure;Samples;Min_cycle;Max_cycle;Signal;HPM_P1;HPM_P2
2022/12/30 00:00:25;;;;;;;17.20;4.47;;;;;;;4.43;100.00;100862.44;6176229;23;20080;-89
2022/12/30 00:02:50;;;;;;;12.73;4.13;;;;;;;4.46;100.00;100868.50;6177535;23;20020;-90
2022/12/30 00:05:16;;;;;;;12.18;4.28;;;;;;;4.47;100.00;100872.00;6175869;23;20150;-90
2022/12/30 00:07:41;;;;;;;13.13;4.07;;;;;;;4.43;100.00;100863.34;6176630;23;20699;-90
2022/12/30 00:10:07;;;;;;;13.77;4.35;;;;;;;4.40;100.00;100859.91;6178631;23;19998;-89
2022/12/30 00:34:55;;;;;;;14.90;4.32;;;;;;;4.15;100.00;100883.38;6178350;23;20092;-89
2022/12/30 00:37:21;;;;;;;14.25;4.53;;;;;;;4.17;100.00;100890.31;6176548;23;20224;-90
2022/12/30 00:39:46;;;;;;;16.08;4.88;;;;;;;4.14;100.00;100907.94;6176715;23;20249;-91
2022/12/30 00:44:55;;;;;;;19.02;5.97;;;;;;;4.08;100.00;100892.31;6172998;23;20019;-90
2022/12/30 00:47:21;;;;;;;18.90;4.53;;;;;;;4.04;100.00;100895.91;6172821;23;20033;-89
2022/12/30 00:57:58;;;;;;;14.30;4.43;;;;;;;3.92;100.00;100883.88;6192977;23;19899;-90
2022/12/30 01:00:23;;;;;;;18.00;4.97;;;;;;;3.84;100.00;100878.78;6161337;23;20005;-91
2022/12/30 01:02:48;;;;;;;13.65;4.45;;;;;;;3.83;100.00;100878.81;6188107;23;20028;-91
2022/12/30 01:05:13;;;;;;;17.08;4.63;;;;;;;3.80;100.00;100892.91;6176279;23;20020;-90
2022/12/30 01:07:39;;;;;;;14.02;4.55;;;;;;;3.76;100.00;100883.34;6174797;23;20420;-90
2022/12/30 01:10:05;;;;;;;15.75;4.70;;;;;;;3.77;100.00;100885.09;6151058;23;20020;-90
2022/12/30 01:12:30;;;;;;;14.30;4.50;;;;;;;3.71;100.00;100885.22;6151131;23;20016;-90
2022/12/30 01:14:56;;;;;;;14.85;4.93;;;;;;;3.73;100.00;100899.25;6177422;23;20009;-90
2022/12/30 01:17:26;;;;;;;16.02;4.70;;;;;;;3.68;100.00;100899.34;6175832;23;20340;-90
2022/12/30 01:19:51;;;;;;;14.32;4.57;;;;;;;3.68;100.00;100898.47;6176707;23;20127;-90
2022/12/30 01:22:16;;;;;;;16.55;4.50;;;;;;;3.72;100.00;100902.75;6175474;23;20063;-90
2022/12/30 01:24:42;;;;;;;14.60;4.45;;;;;;;3.63;100.00;100892.41;6177441;23;20075;-90
2022/12/30 01:27:07;;;;;;;18.08;4.70;;;;;;;3.65;100.00;100899.41;6194331;23;20040;-91
2022/12/30 01:29:36;;;;;;;16.13;4.82;;;;;;;3.64;100.00;100895.03;6190663;23;20494;-90
2022/12/30 01:32:03;;;;;;;20.55;5.68;;;;;;;3.61;100.00;100884.56;6170564;23;19997;-90
2022/12/30 01:34:29;;;;;;;16.95;4.78;;;;;;;3.61;100.00;100896.88;6171628;23;20027;-90
2022/12/30 01:36:54;;;;;;;15.20;5.10;;;;;;;3.59;100.00;100898.66;6167602;23;20028;-90
2022/12/30 01:39:20;;;;;;;13.95;4.50;;;;;;;3.54;100.00;100908.41;6193154;23;20028;-90
2022/12/30 01:41:46;;;;;;;16.10;4.95;;;;;;;3.50;100.00;100908.47;6195972;23;20004;-90
2022/12/30 01:44:56;;;;;;;20.70;5.28;;;;;;;3.47;100.00;100924.34;6160685;23;20036;-90
2022/12/30 01:47:41;;;;;;;18.38;4.90;;;;;;;3.42;100.00;100928.81;6133915;23;20431;-88
2022/12/30 01:50:10;;;;;;;20.95;5.40;;;;;;;3.36;100.00;100926.31;6155537;23;20005;-90
2022/12/30 01:52:39;;;;;;;18.67;5.53;;;;;;;3.33;100.00;100915.84;6181345;23;20009;-89
2022/12/30 01:55:10;;;;;;;23.55;5.32;;;;;;;3.28;100.00;100924.72;6180012;23;20013;-89
2022/12/30 01:57:38;;;;;;;19.73;5.55;;;;;;;3.19;100.00;100931.91;6176569;23;20005;-90
2022/12/30 02:00:04;;;;;;;20.23;5.30;;;;;;;3.18;100.00;100938.06;6176041;23;20005;-90
2022/12/30 02:02:31;;;;;;;18.05;5.47;;;;;;;3.14;100.00;100938.16;6176395;23;20245;-90
2022/12/30 02:04:57;;;;;;;19.33;5.80;;;;;;;3.15;100.00;100940.75;6176964;23;20062;-90
2022/12/30 02:07:34;;;;;;;18.48;5.40;;;;;;;3.13;100.00;100945.16;6175693;23;20037;-90
2022/12/30 02:10:00;;;;;;;17.83;5.55;;;;;;;3.12;100.00;100929.41;6177078;23;20054;-90
2022/12/30 02:12:25;;;;;;;14.93;4.75;;;;;;;3.09;100.00;100929.47;6175554;23;20037;-90
2022/12/30 02:14:54;;;;;;;21.45;5.40;;;;;;;3.17;100.00;100920.53;6175539;23;20001;-90
2022/12/30 02:17:50;;;;;;;20.30;5.43;;;;;;;3.18;100.00;100932.81;6175362;23;20009;-90
2022/12/30 02:20:35;;;;;;;21.50;5.20;;;;;;;3.17;100.00;100927.56;6175957;23;20001;-90
2022/12/30 02:23:41;;;;;;;19.65;5.60;;;;;;;3.15;100.00;100918.84;6113790;23;20044;-89
2022/12/30 02:26:17;;;;;;;18.60;5.38;;;;;;;3.09;100.00;100911.06;6175987;23;20001;-90
2022/12/30 02:28:43;;;;;;;23.30;4.97;;;;;;;3.05;100.00;100910.25;6175190;23;20009;-90
2022/12/30 02:31:20;;;;;;;17.13;5.10;;;;;;;3.04;100.00;100912.91;6175611;23;20009;-90
2022/12/30 02:34:04;;;;;;;15.95;4.88;;;;;;;3.03;100.00;100913.81;6176660;23;20005;-90
2022/12/30 02:36:43;;;;;;;19.67;5.03;;;;;;;2.99;100.00;100905.13;6175036;23;20005;-90
2022/12/30 02:39:15;;;;;;;18.35;5.20;;;;;;;2.97;100.00;100915.66;6147319;23;20020;-91
2022/12/30 02:44:59;;;;;;;19.60;5.68;;;;;;;2.91;100.00;100892.09;6174646;23;20422;-90
2022/12/30 02:47:31;;;;;;;20.33;5.53;;;;;;;2.91;100.00;100889.47;6172403;23;20004;-90
2022/12/30 02:52:48;;;;;;;19.08;5.40;;;;;;;2.83;100.00;100885.25;6175546;23;20713;-91
2022/12/30 02:55:15;;;;;;;19.00;5.25;;;;;;;2.82;100.00;100884.38;6173386;23;20033;-91
2022/12/30 02:57:40;;;;;;;17.88;4.75;;;;;;;2.80;100.00;100880.03;6174095;23;20020;-91
2022/12/30 03:06:26;;;;;;;19.08;4.50;;;;;;;2.80;100.00;100865.16;6175584;23;20072;-90
2022/12/30 03:08:55;;;;;;;17.10;4.97;;;;;;;2.79;100.00;100870.44;6177537;23;20012;-91
2022/12/30 03:11:22;;;;;;;19.42;4.95;;;;;;;2.73;100.00;100861.78;6186256;23;20454;-90
2022/12/30 03:14:02;;;;;;;23.33;5.40;;;;;;;2.70;100.00;100860.97;6192479;23;20103;-90
2022/12/30 03:16:38;;;;;;;19.40;5.00;;;;;;;2.67;100.00;100859.25;6181215;23;20029;-90
2022/12/30 03:19:11;;;;;;;15.90;5.75;;;;;;;2.68;100.00;100866.25;6175524;23;20001;-91
2022/12/30 03:21:40;;;;;;;23.27;5.53;;;;;;;2.57;100.00;100852.44;6174826;23;20009;-91
2022/12/30 03:27:04;;;;;;;15.90;4.57;;;;;;;2.57;100.00;100864.69;6175290;23;20395;-90
2022/12/30 03:29:47;;;;;;;17.23;4.60;;;;;;;2.54;100.00;100864.75;6175910;23;20008;-89
2022/12/30 03:32:15;;;;;;;17.25;4.95;;;;;;;2.50;100.00;100853.44;6175756;23;20000;-90
2022/12/30 03:34:41;;;;;;;19.98;5.65;;;;;;;2.53;100.00;100863.03;6175945;23;20016;-90
2022/12/30 03:37:20;;;;;;;16.85;4.53;;;;;;;2.50;100.00;100864.78;6177227;23;20367;-90
2022/12/30 03:39:51;;;;;;;15.32;5.00;;;;;;;2.48;100.00;100861.34;6181821;23;20351;-89
2022/12/30 03:42:17;;;;;;;22.23;4.75;;;;;;;2.42;100.00;100848.28;6190167;23;20015;-90
2022/12/30 03:44:44;;;;;;;17.90;4.70;;;;;;;2.35;100.00;100844.06;6190942;23;20005;-90
2022/12/30 03:47:14;;;;;;;18.25;5.50;;;;;;;2.37;100.00;100838.78;6189238;23;20001;-91
2022/12/30 03:49:42;;;;;;;15.07;4.53;;;;;;;2.37;100.00;100851.91;6191354;23;20000;-90
2022/12/30 03:52:08;;;;;;;23.30;6.47;;;;;;;2.36;100.00;100856.28;6193891;23;20056;-89
2022/12/30 03:54:33;;;;;;;13.80;5.38;;;;;;;2.44;100.00;100864.91;6200990;23;19993;-90
2022/12/30 03:56:58;;;;;;;16.02;5.53;;;;;;;2.43;100.00;100863.19;6201935;23;20005;-90
2022/12/30 03:59:23;;;;;;;20.50;5.57;;;;;;;2.43;100.00;100865.81;6184835;23;20001;-90
2022/12/30 04:01:49;;;;;;;17.52;5.00;;;;;;;2.39;100.00;100869.38;6179772;23;20001;-91
2022/12/30 04:04:14;;;;;;;16.63;4.88;;;;;;;2.35;100.00;100869.47;6179231;23;20083;-91
2022/12/30 04:06:39;;;;;;;19.08;5.20;;;;;;;2.27;100.00;100861.72;6179153;23;20048;-90
2022/12/30 04:09:05;;;;;;;25.95;6.10;;;;;;;2.32;100.00;100867.75;6179383;23;20000;-90
2022/12/30 04:11:30;;;;;;;20.10;5.80;;;;;;;2.30;100.00;100872.19;6177777;23;20466;-90
2022/12/30 04:13:55;;;;;;;14.40;4.72;;;;;;;2.33;100.00;100868.59;6150718;23;20016;-90
2022/12/30 04:16:21;;;;;;;22.33;6.05;;;;;;;2.36;100.00;100864.19;6149545;23;20372;-89
2022/12/30 04:18:46;;;;;;;19.00;5.45;;;;;;;2.39;100.00;100860.66;6177267;23;20012;-90
2022/12/30 04:21:11;;;;;;;17.10;5.60;;;;;;;2.36;100.00;100861.56;6176189;23;20041;-90
2022/12/30 04:23:36;;;;;;;19.00;5.35;;;;;;;2.39;100.00;100869.38;6175876;23;20320;-90
2022/12/30 04:26:02;;;;;;;20.05;5.32;;;;;;;2.41;100.00;100867.59;6176273;23;20051;-90
2022/12/30 04:28:27;;;;;;;17.10;5.28;;;;;;;2.44;100.00;100878.06;6174564;23;20001;-89
2022/12/30 04:30:53;;;;;;;21.10;5.50;;;;;;;2.47;100.00;100854.38;6177912;23;20477;-90
2022/12/30 04:33:18;;;;;;;21.35;5.63;;;;;;;2.49;100.00;100859.59;6177013;23;20371;-90
2022/12/30 04:35:43;;;;;;;19.23;5.43;;;;;;;2.48;100.00;100852.59;6177613;23;20010;-90
2022/12/30 04:38:09;;;;;;;22.77;5.28;;;;;;;2.52;100.00;100869.19;6175994;23;20041;-90
2022/12/30 04:40:34;;;;;;;22.75;5.55;;;;;;;2.47;100.00;100853.50;6177153;23;20001;-90
2022/12/30 04:42:59;;;;;;;18.80;5.43;;;;;;;2.48;100.00;100858.72;6178708;23;20017;-91
2022/12/30 04:45:24;;;;;;;20.63;5.13;;;;;;;2.35;100.00;100849.31;6177514;23;20011;-89
2022/12/30 04:47:50;;;;;;;18.02;4.95;;;;;;;2.40;100.00;100865.00;6175380;23;20009;-90
2022/12/30 04:50:15;;;;;;;17.85;5.30;;;;;;;2.35;100.00;100854.56;6175348;23;20005;-90
2022/12/30 04:52:41;;;;;;;22.10;6.05;;;;;;;2.25;100.00;100837.22;6177431;23;20005;-91
2022/12/30 04:55:06;;;;;;;19.08;5.53;;;;;;;2.33;100.00;100861.59;6179946;23;20027;-90
2022/12/30 04:57:32;;;;;;;19.27;5.88;;;;;;;2.35;100.00;100872.09;6176109;23;20098;-90
2022/12/30 04:59:58;;;;;;;21.33;5.43;;;;;;;2.35;100.00;100869.47;6176686;23;20431;-90
2022/12/30 05:02:23;;;;;;;19.63;5.43;;;;;;;2.31;100.00;100870.41;6176891;23;20013;-89
2022/12/30 05:04:48;;;;;;;25.70;5.90;;;;;;;2.28;100.00;100857.31;6149982;23;20004;-89
2022/12/30 05:07:13;;;;;;;22.40;5.40;;;;;;;2.26;100.00;100852.09;6149292;23;20328;-90
2022/12/30 05:09:39;;;;;;;22.95;5.70;;;;;;;2.28;100.00;100849.44;6176917;23;19997;-90
2022/12/30 05:12:04;;;;;;;21.63;6.20;;;;;;;2.30;100.00;100848.53;6150593;23;20011;-92
2022/12/30 05:14:30;;;;;;;22.50;6.28;;;;;;;2.29;100.00;100846.78;6178313;23;20822;-90
2022/12/30 05:16:55;;;;;;;20.42;5.43;;;;;;;2.27;100.00;100843.31;6177456;23;20073;-90
2022/12/30 05:19:20;;;;;;;22.83;5.55;;;;;;;2.26;100.00;100836.34;6176750;23;20722;-90
2022/12/30 05:21:45;;;;;;;19.65;5.25;;;;;;;2.17;100.00;100824.25;6189021;23;20051;-90
2022/12/30 05:26:55;;;;;;;21.02;6.13;;;;;;;2.24;100.00;100840.75;6193634;23;20027;-91
2022/12/30 05:29:21;;;;;;;19.60;5.75;;;;;;;2.22;100.00;100840.78;6176286;23;20084;-90
2022/12/30 05:31:46;;;;;;;21.98;5.93;;;;;;;2.24;100.00;100840.75;6175993;23;20079;-90
2022/12/30 05:34:11;;;;;;;16.65;5.70;;;;;;;2.20;100.00;100832.03;6176982;23;20057;-90
2022/12/30 05:36:37;;;;;;;19.10;5.70;;;;;;;2.23;100.00;100836.38;6177421;23;20019;-91
2022/12/30 05:39:03;;;;;;;23.80;5.80;;;;;;;2.21;100.00;100846.91;6177768;23;20089;-90
2022/12/30 05:41:28;;;;;;;19.17;5.90;;;;;;;2.18;100.00;100836.47;6176705;23;20008;-91
2022/12/30 05:43:53;;;;;;;23.83;6.03;;;;;;;2.14;100.00;100840.03;6178071;23;20088;-90
2022/12/30 05:46:20;;;;;;;19.67;5.60;;;;;;;2.22;100.00;100848.66;6176501;23;20031;-89
2022/12/30 05:48:45;;;;;;;23.20;5.40;;;;;;;2.20;100.00;100841.69;6152970;23;20032;-90
2022/12/30 05:51:10;;;;;;;17.60;5.00;;;;;;;2.27;100.00;100845.94;6178380;23;20420;-88
2022/12/30 05:53:36;;;;;;;21.17;6.50;;;;;;;2.30;100.00;100840.66;6181080;23;19989;-90
2022/12/30 05:56:03;;;;;;;21.17;6.07;;;;;;;2.27;100.00;100837.22;6164285;23;20005;-90
2022/12/30 05:58:28;;;;;;;22.00;6.05;;;;;;;2.30;100.00;100831.88;6163883;23;20001;-90
2022/12/30 06:00:56;;;;;;;19.27;5.85;;;;;;;2.29;100.00;100841.53;6170254;23;20023;-90
2022/12/30 06:03:22;;;;;;;20.00;5.75;;;;;;;2.21;100.00;100820.63;6202800;23;20012;-90
2022/12/30 06:05:47;;;;;;;18.08;6.03;;;;;;;2.20;100.00;100831.19;6201543;23;19997;-90
2022/12/30 06:08:12;;;;;;;19.33;5.68;;;;;;;2.18;100.00;100825.09;6185673;23;20058;-89
2022/12/30 06:10:37;;;;;;;17.48;5.43;;;;;;;2.25;100.00;100837.22;6178699;23;20012;-90
2022/12/30 06:13:03;;;;;;;21.83;6.15;;;;;;;2.20;100.00;100831.19;6180755;23;20005;-91
2022/12/30 06:15:28;;;;;;;21.10;6.18;;;;;;;2.22;100.00;100832.03;6153177;23;20028;-89
2022/12/30 06:17:53;;;;;;;24.20;6.55;;;;;;;2.27;100.00;100832.81;6179199;23;20012;-89
2022/12/30 06:20:19;;;;;;;23.60;6.80;;;;;;;2.22;100.00;100826.78;6177313;23;20386;-90
2022/12/30 06:22:44;;;;;;;22.02;6.78;;;;;;;2.25;100.00;100827.56;6178776;23;20379;-91
2022/12/30 06:25:09;;;;;;;21.20;5.95;;;;;;;2.25;100.00;100824.09;6178485;23;20023;-90
2022/12/30 06:27:35;;;;;;;24.70;6.22;;;;;;;2.21;100.00;100820.63;6177108;23;20001;-91
2022/12/30 06:30:00;;;;;;;28.00;6.53;;;;;;;2.21;100.00;100810.13;6177544;23;20001;-90
2022/12/30 06:32:25;;;;;;;20.60;6.30;;;;;;;2.15;100.00;100817.28;6176444;23;20012;-89
2022/12/30 06:34:51;;;;;;;21.38;7.22;;;;;;;2.17;100.00;100820.72;6178118;23;20043;-90
2022/12/30 06:37:16;;;;;;;23.67;6.65;;;;;;;2.13;100.00;100808.53;6176971;23;20005;-90
2022/12/30 06:39:41;;;;;;;22.58;6.68;;;;;;;2.11;100.00;100811.19;6176852;23;20005;-89
2022/12/30 06:42:07;;;;;;;22.33;6.97;;;;;;;2.05;100.00;100784.16;6177199;23;20016;-89
2022/12/30 06:44:32;;;;;;;20.20;6.55;;;;;;;2.08;100.00;100806.00;6178271;23;20005;-90
2022/12/30 06:46:58;;;;;;;19.83;7.25;;;;;;;2.05;100.00;100792.94;6178211;23;20005;-90
2022/12/30 06:49:23;;;;;;;20.00;6.97;;;;;;;2.04;100.00;100782.44;6178136;23;20382;-90
2022/12/30 06:51:48;;;;;;;17.40;7.10;;;;;;;2.09;100.00;100785.84;6181398;23;20005;-89
2022/12/30 06:54:14;;;;;;;19.77;7.32;;;;;;;2.12;100.00;100767.41;6180410;23;20012;-90
2022/12/30 06:56:39;;;;;;;20.85;6.78;;;;;;;2.10;100.00;100770.09;6148227;23;20009;-90
2022/12/30 06:59:04;;;;;;;16.88;6.90;;;;;;;2.13;100.00;100767.41;6176625;23;20754;-90
2022/12/30 07:01:30;;;;;;;17.45;6.57;;;;;;;2.15;100.00;100754.25;6174798;23;20036;-90
2022/12/30 07:03:55;;;;;;;18.85;6.75;;;;;;;2.11;100.00;100747.31;6176182;23;20320;-91
2022/12/30 07:06:20;;;;;;;20.00;6.65;;;;;;;2.12;100.00;100747.28;6174981;23;20479;-90
2022/12/30 07:08:45;;;;;;;22.63;7.32;;;;;;;2.22;100.00;100746.25;6179181;23;20331;-90
2022/12/30 07:11:11;;;;;;;19.05;6.75;;;;;;;2.19;100.00;100740.19;6180928;23;20085;-89
2022/12/30 07:13:36;;;;;;;19.30;6.30;;;;;;;2.24;100.00;100736.56;6179320;23;20451;-90
2022/12/30 07:16:01;;;;;;;17.35;6.82;;;;;;;2.28;100.00;100734.75;6181738;23;20013;-91
2022/12/30 07:18:26;;;;;;;16.90;6.97;;;;;;;2.29;100.00;100725.97;6179137;23;20012;-89
2022/12/30 07:20:52;;;;;;;20.98;6.75;;;;;;;2.32;100.00;100738.19;6179504;23;20012;-91
2022/12/30 07:23:17;;;;;;;23.67;7.60;;;;;;;2.29;100.00;100722.47;6180563;23;20005;-90
2022/12/30 07:25:46;;;;;;;22.65;8.00;;;;;;;2.31;100.00;100732.06;6184467;23;20024;-88
2022/12/30 07:28:11;;;;;;;18.42;6.90;;;;;;;2.29;100.00;100725.97;6181593;23;20009;-91
2022/12/30 07:30:36;;;;;;;20.95;7.63;;;;;;;2.37;100.00;100726.69;6161218;23;20024;-91
2022/12/30 07:33:01;;;;;;;20.95;7.35;;;;;;;2.40;100.00;100724.00;6186827;23;20005;-90
2022/12/30 07:35:27;;;;;;;14.90;6.90;;;;;;;2.44;100.00;100715.19;6174150;23;20000;-90
2022/12/30 07:37:52;;;;;;;17.20;7.57;;;;;;;2.45;100.00;100711.66;6175785;23;20056;-90
2022/12/30 07:40:18;;;;;;;18.38;7.20;;;;;;;2.43;100.00;100700.31;6176763;23;20343;-91
2022/12/30 07:42:44;;;;;;;18.80;7.93;;;;;;;2.41;100.00;100699.47;6177689;23;20012;-91
2022/12/30 07:45:09;;;;;;;17.92;7.45;;;;;;;2.41;100.00;100691.59;6150624;23;20309;-92
2022/12/30 07:47:36;;;;;;;14.45;6.88;;;;;;;2.43;100.00;100695.06;6177960;23;20011;-91
2022/12/30 07:50:03;;;;;;;21.88;7.13;;;;;;;2.50;100.00;100690.53;6177994;23;20035;-92
2022/12/30 07:52:28;;;;;;;19.92;6.93;;;;;;;2.49;100.00;100667.78;6175361;23;20008;-91
2022/12/30 07:54:54;;;;;;;20.20;7.70;;;;;;;2.52;100.00;100656.38;6175007;23;20013;-91
2022/12/30 07:57:19;;;;;;;23.02;6.72;;;;;;;2.60;100.00;100663.19;6174399;23;20461;-91
2022/12/30 07:59:44;;;;;;;19.52;6.85;;;;;;;2.59;100.00;100658.84;6174986;23;20064;-93
2022/12/30 08:02:11;;;;;;;17.38;7.30;;;;;;;2.68;100.00;100660.41;6181850;23;20013;-90
2022/12/30 08:04:36;;;;;;;17.73;6.65;;;;;;;2.70;100.00;100655.97;6195497;23;20020;-90
2022/12/30 08:07:02;;;;;;;15.55;6.30;;;;;;;2.74;100.00;100650.59;6187114;23;20088;-90
2022/12/30 08:09:27;;;;;;;21.38;7.28;;;;;;;2.82;100.00;100644.34;6199093;23;20068;-90
2022/12/30 08:11:52;;;;;;;15.88;6.35;;;;;;;2.82;100.00;100636.44;6200677;23;20367;-90
2022/12/30 08:14:18;;;;;;;16.17;6.68;;;;;;;2.90;100.00;100639.78;6192552;23;20020;-91
2022/12/30 08:16:43;;;;;;;12.68;6.35;;;;;;;2.97;100.00;100638.75;6179829;23;20005;-87
2022/12/30 08:19:08;;;;;;;14.20;6.53;;;;;;;3.03;100.00;100632.47;6150962;23;20009;-87
2022/12/30 08:21:34;;;;;;;15.57;6.45;;;;;;;3.13;100.00;100636.59;6177050;23;20099;-88
2022/12/30 08:23:59;;;;;;;15.05;6.18;;;;;;;3.16;100.00;100632.13;6177427;23;20005;-88
2022/12/30 08:26:24;;;;;;;18.17;6.28;;;;;;;3.23;100.00;100627.59;6175077;23;20043;-87
2022/12/30 08:28:51;;;;;;;19.40;6.85;;;;;;;3.24;100.00;100626.69;6175606;23;20415;-88
2022/12/30 08:31:20;;;;;;;14.35;5.75;;;;;;;3.26;100.00;100619.66;6174800;23;20075;-88
2022/12/30 08:33:46;;;;;;;14.18;6.40;;;;;;;3.28;100.00;100617.81;6148455;23;20005;-86
2022/12/30 08:36:13;;;;;;;15.85;6.38;;;;;;;3.41;100.00;100627.13;6174354;23;20008;-86
2022/12/30 08:38:42;;;;;;;11.27;5.13;;;;;;;3.48;100.00;100618.19;6143153;23;20024;-88
2022/12/30 08:41:13;;;;;;;12.70;4.70;;;;;;;3.57;100.00;100606.56;6144750;23;20008;-88
2022/12/30 08:43:39;;;;;;;18.10;5.53;;;;;;;3.69;100.00;100603.63;6144890;23;20005;-88
2022/12/30 08:46:05;;;;;;;12.82;5.22;;;;;;;3.79;100.00;100592.84;6144718;23;20008;-90
2022/12/30 08:48:31;;;;;;;8.07;4.28;;;;;;;3.80;100.00;100600.69;6146102;23;20717;-89
2022/12/30 08:50:57;;;;;;;11.88;5.53;;;;;;;3.86;100.00;100590.00;6150947;23;20032;-90
2022/12/30 08:53:22;;;;;;;11.52;5.07;;;;;;;3.87;100.00;100581.19;6145941;23;20017;-88
2022/12/30 08:55:48;;;;;;;8.13;3.92;;;;;;;3.95;100.00;100580.97;6145571;23;20025;-88
2022/12/30 08:58:13;;;;;;;11.25;3.90;;;;;;;4.04;100.00;100570.19;6144561;23;20327;-90
2022/12/30 09:00:39;;;;;;;6.78;3.78;;;;;;;4.10;100.00;100567.41;6143740;23;20001;-88
2022/12/30 09:03:05;;;;;;;8.20;3.60;;;;;;;4.15;100.00;100565.50;6144739;23;20009;-89
2022/12/30 09:05:34;;;;;;;7.38;3.35;;;;;;;4.29;100.00;100559.81;6146116;23;20020;-89
2022/12/30 09:07:59;;;;;;;6.20;3.22;;;;;;;4.34;100.00;100557.88;6141812;23;20424;-88
2022/12/30 09:10:25;;;;;;;11.63;3.80;;;;;;;4.31;100.00;100558.00;6143017;23;20012;-87
2022/12/30 09:12:50;;;;;;;10.93;4.10;;;;;;;4.43;100.00;100541.84;6142992;23;20013;-88
2022/12/30 09:15:16;;;;;;;6.88;3.40;;;;;;;4.41;100.00;100540.13;6140441;23;20001;-87
2022/12/30 09:17:41;;;;;;;8.85;3.20;;;;;;;4.50;100.00;100524.91;6144071;23;20311;-87
2022/12/30 09:20:07;;;;;;;8.93;2.90;;;;;;;4.59;100.00;100522.88;6144821;23;20005;-87
2022/12/30 09:22:32;;;;;;;8.02;3.47;;;;;;;4.64;100.00;100528.88;6144243;23;20025;-87
2022/12/30 09:24:57;;;;;;;5.72;2.90;;;;;;;4.68;100.00;100530.50;6144724;23;20063;-87
2022/12/30 09:27:23;;;;;;;6.78;2.90;;;;;;;4.78;100.00;100526.69;6144963;23;20072;-87
2022/12/30 09:29:48;;;;;;;4.65;2.60;;;;;;;4.84;100.00;100521.19;6171369;23;20001;-87
2022/12/30 09:32:13;;;;;;;6.30;2.55;;;;;;;4.86;100.00;100529.94;6169464;23;20013;-87
2022/12/30 09:34:41;;;;;;;9.02;2.97;;;;;;;4.92;100.00;100520.94;6156166;23;20009;-86
2022/12/30 09:37:07;;;;;;;8.48;2.65;;;;;;;4.99;100.00;100522.47;6145287;23;20001;-86
2022/12/30 09:39:32;;;;;;;6.10;2.63;;;;;;;4.97;100.00;100516.38;6172258;23;20017;-87
2022/12/30 09:45:09;;;;;;;8.88;3.00;;;;;;;5.09;100.00;100521.25;6175636;23;20023;-87
2022/12/30 09:47:38;;;;;;;5.47;2.40;;;;;;;5.11;100.00;100508.03;6179462;23;20013;-86
2022/12/30 09:50:28;;;;;;;6.32;2.85;;;;;;;5.14;100.00;100499.97;6178018;23;20012;-86
2022/12/30 09:53:03;;;;;;;9.18;2.95;;;;;;;5.17;100.00;100505.16;6150489;23;20013;-85
2022/12/30 09:55:33;;;;;;;6.13;2.85;;;;;;;5.17;100.00;100491.97;6175131;23;20071;-86
2022/12/30 09:58:03;;;;;;;8.13;2.70;;;;;;;5.24;100.00;100490.84;6149293;23;20359;-90
2022/12/30 10:00:32;;;;;;;10.40;2.60;;;;;;;5.25;100.00;100495.22;6147908;23;20001;-85
2022/12/30 10:03:15;;;;;;;7.03;2.85;;;;;;;5.30;100.00;100481.84;6176695;23;20009;-91
2022/12/30 10:05:51;;;;;;;8.98;3.70;;;;;;;5.31;100.00;100473.91;6174567;23;20013;-90
2022/12/30 10:08:16;;;;;;;8.57;4.70;;;;;;;5.32;100.00;100470.34;6185923;23;20008;-88
2022/12/30 10:10:50;;;;;;;8.07;2.97;;;;;;;5.27;100.00;100452.94;6164613;23;20084;-88
2022/12/30 10:13:40;;;;;;;9.20;3.35;;;;;;;5.36;100.00;100455.28;6183731;23;20336;-86
2022/12/30 10:16:18;;;;;;;10.35;2.90;;;;;;;5.43;100.00;100464.66;6193031;23;20073;-87
2022/12/30 10:18:49;;;;;;;7.93;3.65;;;;;;;5.41;100.00;100459.44;6199765;23;20032;-87
2022/12/30 10:21:40;;;;;;;8.75;2.60;;;;;;;5.43;100.00;100433.00;6197320;23;20009;-87
2022/12/30 10:24:22;;;;;;;7.85;2.65;;;;;;;5.44;100.00;100426.81;6196803;23;20004;-87
2022/12/30 10:26:49;;;;;;;4.57;2.53;;;;;;;5.43;100.00;100414.53;6161443;23;20510;-87
2022/12/30 10:29:18;;;;;;;6.05;2.90;;;;;;;5.46;100.00;100414.41;6195807;23;20009;-88
2022/12/30 10:31:46;;;;;;;7.32;2.70;;;;;;;5.46;100.00;100402.06;6183344;23;20005;-88
2022/12/30 10:34:17;;;;;;;6.07;2.85;;;;;;;5.52;100.00;100394.84;6177858;23;20074;-88
2022/12/30 10:36:48;;;;;;;6.57;2.60;;;;;;;5.50;100.00;100389.63;6180555;23;20005;-88
2022/12/30 10:39:21;;;;;;;6.72;2.60;;;;;;;5.54;100.00;100395.66;6178551;23;20009;-90
2022/12/30 10:41:53;;;;;;;6.57;2.63;;;;;;;5.57;100.00;100385.00;6176238;23;20009;-86
2022/12/30 10:44:21;;;;;;;7.75;2.70;;;;;;;5.56;100.00;100355.09;6176269;23;20004;-92
2022/12/30 10:47:34;;;;;;;8.27;3.30;;;;;;;5.63;100.00;100353.06;6178470;23;20015;-90
2022/12/30 10:50:37;;;;;;;9.77;3.22;;;;;;;5.64;100.00;100339.81;6056145;23;20480;-91
2022/12/30 10:53:08;;;;;;;14.93;3.53;;;;;;;5.70;100.00;100329.00;6053186;23;20011;-90
2022/12/30 10:55:40;;;;;;;9.55;2.58;;;;;;;5.74;100.00;100319.19;6052515;23;20010;-89
2022/12/30 10:58:11;;;;;;;6.60;2.80;;;;;;;5.81;100.00;100318.03;6055336;23;20018;-93
2022/12/30 11:00:40;;;;;;;7.07;2.63;;;;;;;5.79;100.00;100298.75;6056956;23;20006;-86
2022/12/30 11:03:19;;;;;;;7.85;2.85;;;;;;;5.82;100.00;100295.13;6057646;23;20516;-90
2022/12/30 11:05:45;;;;;;;12.43;3.63;;;;;;;5.80;100.00;100283.75;6058747;23;20628;-88
2022/12/30 11:08:28;;;;;;;8.27;3.03;;;;;;;5.77;100.00;100266.28;6052739;23;20109;-88
2022/12/30 11:10:59;;;;;;;9.43;3.23;;;;;;;5.87;100.00;100267.59;6052552;23;20098;-87
2022/12/30 11:16:08;;;;;;;11.68;2.97;;;;;;;5.94;100.00;100263.84;6053063;23;20025;-86
2022/12/30 11:18:35;;;;;;;10.65;2.83;;;;;;;5.93;100.00;100245.38;6054470;23;20405;-86
2022/12/30 11:21:01;;;;;;;11.38;2.88;;;;;;;5.91;100.00;100239.28;6056038;23;20043;-86
2022/12/30 11:23:35;;;;;;;6.78;2.63;;;;;;;5.99;100.00;100240.72;6096547;23;20009;-87
2022/12/30 11:26:03;;;;;;;7.20;2.72;;;;;;;5.97;100.00;100236.41;6149330;23;20009;-87
2022/12/30 11:28:34;;;;;;;8.38;2.80;;;;;;;5.99;100.00;100230.16;6174407;23;20490;-86
2022/12/30 11:31:12;;;;;;;11.85;3.25;;;;;;;5.99;100.00;100224.88;6151233;23;20036;-86
2022/12/30 11:33:45;;;;;;;5.57;3.28;;;;;;;6.06;100.00;100199.06;6180132;23;20004;-86
2022/12/30 11:36:30;;;;;;;8.25;3.28;;;;;;;6.12;100.00;100190.00;6162948;23;20028;-87
2022/12/30 11:39:15;;;;;;;9.38;2.85;;;;;;;6.16;100.00;100168.66;6190413;23;20017;-87
2022/12/30 11:41:47;;;;;;;12.55;3.10;;;;;;;6.25;100.00;100170.06;6153912;23;20177;-87
2022/12/30 11:44:24;;;;;;;7.45;2.78;;;;;;;6.33;100.00;100149.44;6176687;23;20016;-87
2022/12/30 11:46:53;;;;;;;8.00;3.30;;;;;;;6.42;100.00;100149.00;6179093;23;20005;-87
2022/12/30 11:49:29;;;;;;;10.50;2.90;;;;;;;6.48;100.00;100132.88;6179452;23;20109;-86
2022/12/30 11:51:58;;;;;;;8.73;3.13;;;;;;;6.42;100.00;100125.22;6177162;23;20019;-87
2022/12/30 11:54:30;;;;;;;6.40;2.50;;;;;;;6.43;100.00;100121.66;6175092;23;20009;-87
2022/12/30 11:56:59;;;;;;;11.52;2.80;;;;;;;6.46;100.00;100121.50;6175964;23;20035;-87
2022/12/30 11:59:31;;;;;;;9.60;2.60;;;;;;;6.48;100.00;100111.75;6174552;23;20036;-86
2022/12/30 12:02:00;;;;;;;8.20;2.80;;;;;;;6.40;100.00;100108.59;6175317;23;20440;-86
2022/12/30 12:04:38;;;;;;;9.57;2.95;;;;;;;6.39;100.00;100091.00;6173915;23;20009;-87
2022/12/30 12:07:17;;;;;;;10.90;2.53;;;;;;;6.43;100.00;100078.50;6175086;23;20028;-86
2022/12/30 12:09:50;;;;;;;13.40;3.00;;;;;;;6.45;100.00;100080.16;6174346;23;20104;-87
2022/12/30 12:12:19;;;;;;;10.90;3.10;;;;;;;6.53;100.00;100068.38;6174835;23;20016;-86
2022/12/30 12:15:10;;;;;;;9.30;3.15;;;;;;;6.53;100.00;100069.22;6174612;23;20001;-86
2022/12/30 12:17:43;;;;;;;12.15;3.10;;;;;;;6.55;100.00;100048.84;6174342;23;20017;-87
2022/12/30 12:20:35;;;;;;;8.90;2.83;;;;;;;6.56;100.00;100053.19;6174615;23;20450;-87
2022/12/30 12:23:05;;;;;;;5.55;2.42;;;;;;;6.60;100.00;100024.81;6158108;23;20072;-87